createdAt,value
2022-10-26T00:00:53.035Z,11.90
2022-10-26T00:03:19.771Z,11.90
2022-10-26T00:05:46.354Z,11.90
2022-10-26T00:08:12.966Z,11.80
2022-10-26T00:10:39.762Z,11.70
2022-10-26T00:13:10.660Z,11.70
2022-10-26T00:15:41.519Z,11.60
2022-10-26T00:18:08.768Z,11.60
2022-10-26T00:20:35.324Z,11.50
2022-10-26T00:23:01.869Z,11.50
2022-10-26T00:25:28.398Z,11.40
2022-10-26T00:27:54.934Z,11.40
2022-10-26T00:30:21.543Z,11.40
2022-10-26T00:32:48.106Z,11.30
2022-10-26T00:35:23.097Z,11.40
2022-10-26T00:37:56.344Z,11.50
2022-10-26T00:40:29.968Z,11.40
2022-10-26T00:42:56.934Z,11.50
2022-10-26T00:45:29.232Z,11.50
2022-10-26T00:48:02.724Z,11.60
2022-10-26T00:50:34.863Z,11.60
2022-10-26T00:53:03.803Z,11.60
2022-10-26T00:55:36.856Z,11.60
2022-10-26T00:58:07.163Z,11.70
2022-10-26T01:00:33.795Z,11.70
2022-10-26T01:03:05.265Z,11.70
2022-10-26T01:05:33.209Z,11.80
2022-10-26T01:08:00.207Z,11.70
2022-10-26T01:10:28.556Z,11.80
2022-10-26T01:12:58.172Z,11.70
2022-10-26T01:15:55.688Z,11.70
2022-10-26T01:18:40.408Z,11.80
2022-10-26T01:21:20.098Z,11.80
2022-10-26T01:24:21.878Z,11.70
2022-10-26T01:27:20.236Z,11.70
2022-10-26T01:30:16.457Z,11.80
2022-10-26T01:32:58.345Z,11.90
2022-10-26T01:35:33.778Z,11.90
2022-10-26T01:38:34.827Z,11.90
2022-10-26T01:41:05.465Z,11.90
2022-10-26T01:43:36.589Z,11.90
2022-10-26T01:46:06.167Z,11.90
2022-10-26T01:48:34.286Z,12.00
2022-10-26T01:51:02.510Z,11.90
2022-10-26T01:53:29.138Z,11.90
2022-10-26T01:55:56.393Z,12.00
2022-10-26T01:58:28.825Z,12.00
2022-10-26T02:01:10.727Z,11.90
2022-10-26T02:04:04.803Z,12.00
2022-10-26T02:06:43.663Z,12.00
2022-10-26T02:09:23.477Z,11.90
2022-10-26T02:11:53.393Z,11.90
2022-10-26T02:14:30.266Z,11.90
2022-10-26T02:17:02.325Z,11.90
2022-10-26T02:19:41.415Z,12.10
2022-10-26T02:22:14.120Z,12.30
2022-10-26T02:24:42.262Z,12.20
2022-10-26T02:27:13.222Z,12.30
2022-10-26T02:29:41.246Z,12.40
2022-10-26T02:32:09.001Z,12.40
2022-10-26T02:34:38.202Z,12.40
2022-10-26T02:37:05.867Z,12.50
2022-10-26T02:39:34.566Z,12.40
2022-10-26T02:42:04.315Z,12.30
2022-10-26T02:44:37.396Z,12.30
2022-10-26T02:47:04.002Z,12.40
2022-10-26T02:49:30.689Z,12.70
2022-10-26T02:52:13.162Z,12.80
2022-10-26T02:55:14.924Z,12.80
2022-10-26T02:57:44.823Z,12.90
2022-10-26T03:00:17.373Z,12.80
2022-10-26T03:02:48.412Z,12.90
2022-10-26T03:05:32.520Z,12.80
2022-10-26T03:08:00.911Z,12.80
2022-10-26T03:10:27.777Z,13.00
2022-10-26T03:12:54.810Z,12.90
2022-10-26T03:15:21.649Z,12.90
2022-10-26T03:17:48.430Z,12.90
2022-10-26T03:20:15.286Z,13.00
2022-10-26T03:22:41.833Z,13.00
2022-10-26T03:27:40.172Z,13.10
2022-10-26T03:30:08.909Z,13.10
2022-10-26T03:32:35.552Z,13.10
2022-10-26T03:35:02.221Z,13.20
2022-10-26T03:37:28.759Z,13.10
2022-10-26T03:39:55.282Z,13.10
2022-10-26T03:42:21.836Z,13.20
2022-10-26T03:44:48.433Z,13.30
2022-10-26T03:47:14.985Z,13.40
2022-10-26T03:49:41.497Z,13.50
2022-10-26T03:52:08.148Z,13.50
2022-10-26T03:54:34.698Z,13.50
2022-10-26T03:57:01.541Z,13.60
2022-10-26T03:59:28.079Z,13.50
2022-10-26T04:01:57.663Z,13.50
2022-10-26T04:04:25.042Z,13.60
2022-10-26T04:06:52.387Z,13.60
2022-10-26T04:09:19.082Z,13.70
2022-10-26T04:11:45.624Z,13.70
2022-10-26T04:14:12.273Z,13.80
2022-10-26T04:16:38.853Z,13.80
2022-10-26T04:19:05.430Z,13.90
2022-10-26T04:21:33.073Z,13.80
2022-10-26T04:23:59.625Z,13.80
2022-10-26T04:26:26.150Z,13.80
2022-10-26T04:28:52.677Z,13.80
2022-10-26T04:31:19.503Z,13.80
2022-10-26T04:33:46.013Z,13.80
2022-10-26T04:36:12.565Z,13.70
2022-10-26T04:38:39.078Z,13.70
2022-10-26T04:41:05.646Z,13.70
2022-10-26T04:43:32.189Z,13.70
2022-10-26T04:45:59.358Z,13.60
2022-10-26T04:48:26.154Z,13.80
2022-10-26T04:50:53.103Z,13.90
2022-10-26T04:53:19.706Z,13.90
2022-10-26T04:55:46.320Z,13.90
2022-10-26T04:58:13.128Z,13.90
2022-10-26T05:00:39.644Z,14.00
2022-10-26T05:03:07.299Z,14.00
2022-10-26T05:05:35.900Z,14.00
2022-10-26T05:08:02.964Z,14.00
2022-10-26T05:10:29.634Z,14.10
2022-10-26T05:12:58.022Z,14.10
2022-10-26T05:15:24.602Z,14.10
2022-10-26T05:17:59.162Z,14.10
2022-10-26T05:20:31.294Z,14.20
2022-10-26T05:22:59.133Z,14.30
2022-10-26T05:25:26.062Z,14.20
2022-10-26T05:27:52.599Z,14.30
2022-10-26T05:30:19.167Z,14.20
2022-10-26T05:32:52.934Z,14.20
2022-10-26T05:35:19.869Z,14.10
2022-10-26T05:37:46.418Z,14.10
2022-10-26T05:40:13.178Z,14.20
2022-10-26T05:42:39.710Z,14.20
2022-10-26T05:45:06.714Z,14.40
2022-10-26T05:47:33.225Z,14.60
2022-10-26T05:49:59.993Z,14.70
2022-10-26T05:52:26.557Z,14.70
2022-10-26T05:54:53.123Z,14.70
2022-10-26T05:57:19.955Z,14.70
2022-10-26T05:59:46.749Z,14.70
2022-10-26T06:02:26.405Z,14.60
2022-10-26T06:04:57.354Z,14.60
2022-10-26T06:07:24.164Z,14.60
2022-10-26T06:09:51.046Z,14.60
2022-10-26T06:12:19.695Z,14.60
2022-10-26T06:14:46.896Z,14.60
2022-10-26T06:17:16.688Z,14.60
2022-10-26T06:19:56.189Z,14.70
2022-10-26T06:22:35.080Z,14.90
2022-10-26T06:25:49.673Z,14.90
2022-10-26T06:28:49.985Z,15.10
2022-10-26T06:31:17.693Z,15.30
2022-10-26T06:33:44.426Z,15.40
2022-10-26T06:36:24.594Z,15.40
2022-10-26T06:38:59.733Z,15.40
2022-10-26T06:41:27.030Z,15.50
2022-10-26T06:43:53.938Z,15.50
2022-10-26T06:46:41.254Z,15.50
2022-10-26T06:49:41.083Z,15.60
2022-10-26T06:52:07.594Z,15.50
2022-10-26T06:54:54.520Z,15.60
2022-10-26T06:57:23.797Z,15.60
2022-10-26T06:59:58.576Z,15.60
2022-10-26T07:02:25.374Z,15.40
2022-10-26T07:04:52.138Z,15.20
2022-10-26T07:07:21.777Z,15.30
2022-10-26T07:09:48.702Z,15.40
2022-10-26T07:12:15.426Z,15.60
2022-10-26T07:14:41.943Z,15.70
2022-10-26T07:17:09.400Z,15.70
2022-10-26T07:19:36.008Z,15.80
2022-10-26T07:22:03.169Z,15.80
2022-10-26T07:24:30.177Z,16.00
2022-10-26T07:26:58.498Z,16.00
2022-10-26T07:29:26.583Z,16.00
2022-10-26T07:34:21.019Z,16.10
2022-10-26T07:36:47.636Z,16.50
2022-10-26T07:39:14.228Z,16.90
2022-10-26T07:41:40.821Z,17.10
2022-10-26T07:44:07.361Z,17.50
2022-10-26T07:46:33.905Z,17.40
2022-10-26T07:49:00.821Z,17.20
2022-10-26T07:51:27.489Z,17.00
2022-10-26T07:53:54.019Z,17.20
2022-10-26T07:56:20.626Z,17.70
2022-10-26T07:58:47.147Z,17.90
2022-10-26T08:01:15.966Z,18.00
2022-10-26T08:03:42.640Z,18.40
2022-10-26T08:06:10.377Z,18.40
2022-10-26T08:08:37.538Z,18.80
2022-10-26T08:11:05.582Z,19.70
2022-10-26T08:13:32.303Z,20.00
2022-10-26T08:16:04.620Z,19.80
2022-10-26T08:18:31.265Z,20.00
2022-10-26T08:21:10.775Z,19.90
2022-10-26T08:23:39.502Z,19.80
2022-10-26T08:26:06.848Z,20.30
2022-10-26T08:28:33.660Z,20.60
2022-10-26T08:31:00.196Z,20.90
2022-10-26T08:33:26.770Z,20.90
2022-10-26T08:35:57.880Z,21.10
2022-10-26T08:38:24.728Z,21.20
2022-10-26T08:40:52.581Z,21.30
2022-10-26T08:43:27.590Z,21.20
2022-10-26T08:46:41.634Z,20.80
2022-10-26T08:49:29.500Z,20.60
2022-10-26T08:51:59.841Z,21.10
2022-10-26T08:54:48.305Z,21.00
2022-10-26T08:57:24.364Z,20.60
2022-10-26T09:00:01.598Z,20.60
2022-10-26T09:02:28.583Z,20.80
2022-10-26T09:04:57.281Z,21.00
2022-10-26T09:07:52.000Z,20.90
2022-10-26T09:10:41.054Z,20.80
2022-10-26T09:13:42.494Z,20.80
2022-10-26T09:16:30.917Z,20.80
2022-10-26T09:19:37.350Z,20.60
2022-10-26T09:22:25.808Z,21.00
2022-10-26T09:24:56.261Z,20.80
2022-10-26T09:27:40.621Z,20.90
2022-10-26T09:30:15.492Z,20.80
2022-10-26T09:32:48.842Z,20.90
2022-10-26T09:35:23.356Z,21.20
2022-10-26T09:38:03.737Z,21.10
2022-10-26T09:40:37.795Z,21.10
2022-10-26T09:43:12.498Z,21.20
2022-10-26T09:45:44.634Z,21.40
2022-10-26T09:48:21.309Z,21.20
2022-10-26T09:50:49.836Z,21.10
2022-10-26T09:53:16.545Z,21.10
2022-10-26T09:55:46.779Z,21.30
2022-10-26T09:58:18.641Z,21.60
2022-10-26T10:00:45.963Z,21.60
2022-10-26T10:03:21.757Z,21.50
2022-10-26T10:05:51.768Z,21.30
2022-10-26T10:08:27.367Z,21.40
2022-10-26T10:10:58.312Z,21.30
2022-10-26T10:13:33.620Z,21.40
2022-10-26T10:16:05.731Z,21.20
2022-10-26T10:18:33.160Z,21.40
2022-10-26T10:20:59.962Z,21.70
2022-10-26T10:23:48.315Z,21.60
2022-10-26T10:26:15.014Z,21.30
2022-10-26T10:28:44.986Z,21.40
2022-10-26T10:31:22.865Z,21.70
2022-10-26T10:33:49.887Z,22.00
2022-10-26T10:36:20.054Z,21.70
2022-10-26T10:38:48.990Z,22.10
2022-10-26T10:41:17.306Z,22.20
2022-10-26T10:43:49.542Z,22.10
2022-10-26T10:46:21.717Z,22.20
2022-10-26T10:49:02.525Z,22.40
2022-10-26T10:51:35.501Z,22.40
2022-10-26T10:54:04.178Z,21.90
2022-10-26T10:56:52.984Z,22.30
2022-10-26T10:59:33.574Z,22.60
2022-10-26T11:02:05.787Z,22.90
2022-10-26T11:04:47.362Z,23.00
2022-10-26T11:07:17.246Z,23.20
2022-10-26T11:09:47.112Z,22.80
2022-10-26T11:12:21.542Z,22.20
2022-10-26T11:14:53.675Z,22.60
2022-10-26T11:17:24.044Z,22.60
2022-10-26T11:19:57.349Z,22.80
2022-10-26T11:22:34.461Z,23.40
2022-10-26T11:25:35.709Z,23.00
2022-10-26T11:28:10.872Z,23.50
2022-10-26T11:30:45.175Z,23.30
2022-10-26T11:33:31.850Z,23.30
2022-10-26T11:36:05.840Z,23.30
2022-10-26T11:38:58.268Z,23.90
2022-10-26T11:41:40.337Z,23.40
2022-10-26T11:44:52.699Z,23.70
2022-10-26T11:47:38.322Z,22.70
2022-10-26T11:50:27.406Z,22.60
2022-10-26T11:53:02.270Z,22.70
2022-10-26T11:55:29.306Z,23.20
2022-10-26T11:57:57.517Z,23.40
2022-10-26T12:00:25.032Z,23.20
2022-10-26T12:03:07.293Z,23.60
2022-10-26T12:05:45.237Z,23.60
2022-10-26T12:08:28.982Z,24.00
2022-10-26T12:11:14.796Z,23.70
2022-10-26T12:13:59.795Z,23.50
2022-10-26T12:16:49.233Z,23.40
2022-10-26T12:21:54.448Z,23.40
2022-10-26T12:24:28.070Z,22.90
2022-10-26T12:26:59.858Z,22.90
2022-10-26T12:29:30.130Z,23.10
2022-10-26T12:31:57.096Z,23.00
2022-10-26T12:34:31.074Z,23.20
2022-10-26T12:36:57.561Z,23.30
2022-10-26T12:39:37.597Z,23.00
2022-10-26T12:42:10.540Z,22.90
2022-10-26T12:44:47.275Z,22.70
2022-10-26T12:47:29.626Z,22.80
2022-10-26T12:50:09.279Z,23.00
2022-10-26T12:52:49.726Z,23.30
2022-10-26T12:55:50.749Z,23.40
2022-10-26T12:58:38.393Z,23.50
2022-10-26T13:01:14.222Z,24.00
2022-10-26T13:03:43.618Z,24.40
2022-10-26T13:06:36.025Z,24.90
2022-10-26T13:09:15.206Z,25.00
2022-10-26T13:11:53.545Z,24.90
2022-10-26T13:14:28.359Z,24.80
2022-10-26T13:16:55.473Z,24.80
2022-10-26T13:19:36.339Z,24.20
2022-10-26T13:22:03.261Z,23.60
2022-10-26T13:24:32.641Z,23.50
2022-10-26T13:27:05.342Z,23.90
2022-10-26T13:29:33.456Z,23.50
2022-10-26T13:32:00.162Z,23.80
2022-10-26T13:34:30.679Z,24.10
2022-10-26T13:37:27.045Z,24.10
2022-10-26T13:39:55.921Z,24.30
2022-10-26T13:42:32.754Z,24.50
2022-10-26T13:45:13.772Z,24.80
2022-10-26T13:47:53.619Z,24.40
2022-10-26T13:50:26.470Z,24.40
2022-10-26T13:52:59.866Z,23.80
2022-10-26T13:55:38.787Z,23.40
2022-10-26T13:58:05.291Z,23.20
2022-10-26T14:00:31.910Z,23.30
2022-10-26T14:02:58.472Z,23.00
2022-10-26T14:05:25.282Z,23.00
2022-10-26T14:07:57.262Z,23.40
2022-10-26T14:10:40.522Z,23.20
2022-10-26T14:13:09.238Z,23.30
2022-10-26T14:15:36.502Z,23.50
2022-10-26T14:18:04.329Z,23.50
2022-10-26T14:20:32.001Z,23.40
2022-10-26T14:22:58.581Z,23.30
2022-10-26T14:25:41.778Z,23.00
2022-10-26T14:28:43.677Z,23.10
2022-10-26T14:31:23.895Z,22.90
2022-10-26T14:33:51.697Z,23.00
2022-10-26T14:36:21.289Z,22.90
2022-10-26T14:38:53.350Z,22.60
2022-10-26T14:41:21.339Z,22.00
2022-10-26T14:43:48.230Z,22.00
2022-10-26T14:46:17.240Z,22.10
2022-10-26T14:48:58.723Z,22.10
2022-10-26T14:51:30.031Z,21.80
2022-10-26T14:53:58.829Z,21.90
2022-10-26T14:56:34.565Z,21.90
2022-10-26T14:59:20.726Z,21.80
2022-10-26T15:01:59.154Z,21.80
2022-10-26T15:04:28.513Z,21.90
2022-10-26T15:07:07.210Z,21.90
2022-10-26T15:09:48.617Z,21.70
2022-10-26T15:12:29.326Z,21.70
2022-10-26T15:15:04.171Z,21.70
2022-10-26T15:17:38.078Z,21.50
2022-10-26T15:20:07.270Z,21.30
2022-10-26T15:22:34.469Z,21.30
2022-10-26T15:25:05.752Z,21.30
2022-10-26T15:27:32.794Z,21.30
2022-10-26T15:30:21.250Z,21.20
2022-10-26T15:32:48.282Z,21.00
2022-10-26T15:35:22.817Z,20.90
2022-10-26T15:37:51.748Z,20.80
2022-10-26T15:40:19.092Z,20.70
2022-10-26T15:42:50.365Z,20.60
2022-10-26T15:45:19.435Z,20.60
2022-10-26T15:47:47.100Z,20.50
2022-10-26T15:50:19.368Z,20.30
2022-10-26T15:52:49.065Z,20.20
2022-10-26T15:55:17.090Z,20.10
2022-10-26T15:57:44.264Z,19.80
2022-10-26T16:00:16.035Z,19.60
2022-10-26T16:02:44.252Z,19.50
2022-10-26T16:05:16.005Z,19.40
2022-10-26T16:07:44.812Z,19.20
2022-10-26T16:10:23.742Z,19.20
2022-10-26T16:12:50.623Z,19.10
2022-10-26T16:15:24.352Z,19.00
2022-10-26T16:17:51.878Z,18.80
2022-10-26T16:20:22.787Z,18.70
2022-10-26T16:22:51.944Z,18.60
2022-10-26T16:25:22.413Z,18.30
2022-10-26T16:27:52.087Z,18.20
2022-10-26T16:30:19.381Z,18.10
2022-10-26T16:32:46.217Z,18.10
2022-10-26T16:35:13.465Z,18.00
2022-10-26T16:37:40.466Z,18.00
2022-10-26T16:40:08.612Z,18.00
2022-10-26T16:42:35.655Z,18.10
2022-10-26T16:45:03.000Z,18.10
2022-10-26T16:47:35.463Z,18.00
2022-10-26T16:50:03.328Z,18.00
2022-10-26T16:52:29.898Z,18.00
2022-10-26T16:54:56.830Z,18.00
2022-10-26T16:57:23.390Z,18.10
2022-10-26T16:59:49.955Z,18.00
2022-10-26T17:02:16.693Z,18.10
2022-10-26T17:04:43.449Z,17.90
2022-10-26T17:07:11.286Z,18.10
2022-10-26T17:09:38.210Z,18.10
2022-10-26T17:12:05.201Z,18.10
2022-10-26T17:14:32.601Z,17.90
2022-10-26T17:16:59.617Z,18.00
2022-10-26T17:19:26.228Z,17.90
2022-10-26T17:21:53.130Z,17.80
2022-10-26T17:24:19.705Z,17.70
2022-10-26T17:26:46.420Z,17.70
2022-10-26T17:29:13.514Z,17.60
2022-10-26T17:31:40.120Z,17.60
2022-10-26T17:34:06.846Z,17.60
2022-10-26T17:36:33.446Z,17.60
2022-10-26T17:39:00.854Z,17.60
2022-10-26T17:41:28.581Z,17.50
2022-10-26T17:43:55.156Z,17.40
2022-10-26T17:46:24.281Z,17.30
2022-10-26T17:48:59.206Z,17.30
2022-10-26T17:51:27.176Z,17.30
2022-10-26T17:53:54.597Z,17.20
2022-10-26T17:56:24.218Z,17.10
2022-10-26T17:58:52.629Z,17.00
2022-10-26T18:01:19.556Z,17.00
2022-10-26T18:03:46.462Z,16.90
2022-10-26T18:06:13.629Z,16.90
2022-10-26T18:08:40.658Z,16.80
2022-10-26T18:11:11.466Z,16.80
2022-10-26T18:13:38.338Z,16.70
2022-10-26T18:16:09.185Z,16.80
2022-10-26T18:18:37.329Z,16.70
2022-10-26T18:21:14.897Z,16.70
2022-10-26T18:23:41.504Z,16.60
2022-10-26T18:26:14.313Z,16.50
2022-10-26T18:28:41.535Z,16.50
2022-10-26T18:31:11.227Z,16.30
2022-10-26T18:33:38.278Z,16.30
2022-10-26T18:36:10.730Z,16.20
2022-10-26T18:38:38.305Z,16.20
2022-10-26T18:41:05.011Z,16.20
2022-10-26T18:43:31.712Z,16.20
2022-10-26T18:46:16.249Z,16.10
2022-10-26T18:48:45.957Z,15.90
2022-10-26T18:51:14.499Z,15.90
2022-10-26T18:53:42.659Z,15.70
2022-10-26T18:56:15.769Z,15.50
2022-10-26T18:58:44.609Z,15.40
2022-10-26T19:01:42.246Z,15.40
2022-10-26T19:04:10.982Z,15.40
2022-10-26T19:06:40.712Z,15.50
2022-10-26T19:09:07.855Z,15.50
2022-10-26T19:11:35.190Z,15.60
2022-10-26T19:14:01.794Z,15.80
2022-10-26T19:16:45.284Z,15.80
2022-10-26T19:19:14.347Z,15.70
2022-10-26T19:21:41.025Z,15.70
2022-10-26T19:24:19.190Z,15.70
2022-10-26T19:26:46.639Z,15.80
2022-10-26T19:29:15.838Z,15.70
2022-10-26T19:31:44.286Z,15.60
2022-10-26T19:34:12.485Z,15.60
2022-10-26T19:36:43.742Z,15.70
2022-10-26T19:39:10.406Z,15.70
2022-10-26T19:41:37.086Z,15.60
2022-10-26T19:44:04.373Z,15.40
2022-10-26T19:46:32.608Z,15.30
2022-10-26T19:49:00.945Z,15.20
2022-10-26T19:51:28.794Z,15.20
2022-10-26T19:53:57.859Z,15.00
2022-10-26T19:56:27.134Z,15.00
2022-10-26T19:58:54.112Z,15.00
2022-10-26T20:01:20.910Z,15.10
2022-10-26T20:03:47.561Z,15.20
2022-10-26T20:06:15.396Z,15.30
2022-10-26T20:08:44.331Z,15.50
2022-10-26T20:11:14.754Z,15.60
2022-10-26T20:13:42.856Z,15.60
2022-10-26T20:16:09.688Z,15.70
2022-10-26T20:18:36.222Z,15.70
2022-10-26T20:21:10.425Z,15.70
2022-10-26T20:23:37.487Z,15.80
2022-10-26T20:28:31.348Z,15.80
2022-10-26T20:30:59.339Z,15.80
2022-10-26T20:33:26.744Z,15.80
2022-10-26T20:36:00.268Z,15.90
2022-10-26T20:38:27.484Z,16.00
2022-10-26T20:40:59.191Z,16.10
2022-10-26T20:43:27.244Z,16.10
2022-10-26T20:45:55.933Z,16.20
2022-10-26T20:48:23.799Z,16.20
2022-10-26T20:50:56.164Z,16.10
2022-10-26T20:53:35.150Z,16.10
2022-10-26T20:56:05.742Z,16.10
2022-10-26T20:58:45.223Z,16.10
2022-10-26T21:01:24.808Z,16.10
2022-10-26T21:03:56.026Z,16.10
2022-10-26T21:06:23.199Z,16.10
2022-10-26T21:08:51.337Z,16.10
2022-10-26T21:11:19.163Z,16.10
2022-10-26T21:13:47.666Z,16.10
2022-10-26T21:16:14.650Z,16.10
2022-10-26T21:18:41.237Z,16.00
2022-10-26T21:21:07.986Z,16.10
2022-10-26T21:23:37.335Z,16.00
2022-10-26T21:26:05.037Z,16.00
2022-10-26T21:28:36.682Z,16.00
2022-10-26T21:31:05.285Z,16.00
2022-10-26T21:33:32.169Z,15.90
2022-10-26T21:36:03.918Z,15.90
2022-10-26T21:38:31.910Z,15.80
2022-10-26T21:41:06.619Z,15.80
2022-10-26T21:43:34.186Z,15.70
2022-10-26T21:46:04.550Z,15.60
2022-10-26T21:48:32.481Z,15.60
2022-10-26T21:51:02.064Z,15.60
2022-10-26T21:53:28.970Z,15.70
2022-10-26T21:56:09.687Z,15.70
2022-10-26T21:58:36.960Z,15.60
2022-10-26T22:01:18.472Z,15.60
2022-10-26T22:03:45.814Z,15.60
2022-10-26T22:06:15.005Z,15.60
2022-10-26T22:08:42.334Z,15.70
2022-10-26T22:11:13.017Z,15.80
2022-10-26T22:13:42.939Z,15.80
2022-10-26T22:16:12.611Z,15.80
2022-10-26T22:18:41.630Z,15.80
2022-10-26T22:21:09.056Z,15.90
2022-10-26T22:23:38.236Z,16.00
2022-10-26T22:26:06.466Z,16.00
2022-10-26T22:28:40.082Z,15.90
2022-10-26T22:31:22.809Z,15.80
2022-10-26T22:34:00.848Z,15.70
2022-10-26T22:36:31.517Z,15.70
2022-10-26T22:38:58.355Z,15.80
2022-10-26T22:41:25.366Z,15.80
2022-10-26T22:43:52.330Z,15.80
2022-10-26T22:46:24.035Z,15.70
2022-10-26T22:48:55.401Z,15.70
2022-10-26T22:51:23.174Z,15.70
2022-10-26T22:53:54.521Z,15.70
2022-10-26T22:56:21.884Z,15.70
2022-10-26T22:58:48.566Z,15.70
2022-10-26T23:01:17.643Z,15.70
2022-10-26T23:03:44.527Z,15.70
2022-10-26T23:06:13.741Z,15.50
2022-10-26T23:08:40.933Z,15.40
2022-10-26T23:11:10.263Z,15.30
2022-10-26T23:13:36.829Z,15.30
2022-10-26T23:16:12.600Z,15.20
2022-10-26T23:18:39.388Z,15.20
2022-10-26T23:21:07.081Z,15.10
2022-10-26T23:23:33.886Z,15.00
2022-10-26T23:26:05.498Z,15.00
2022-10-26T23:28:32.275Z,15.00
2022-10-26T23:30:58.853Z,15.00
2022-10-26T23:33:25.477Z,15.10
2022-10-26T23:35:52.693Z,15.00
2022-10-26T23:38:19.920Z,15.00
2022-10-26T23:40:57.602Z,15.00
2022-10-26T23:43:25.248Z,15.00
2022-10-26T23:45:52.259Z,15.00
2022-10-26T23:48:19.290Z,15.00
2022-10-26T23:50:47.704Z,15.00
2022-10-26T23:53:15.763Z,14.90
2022-10-26T23:55:46.063Z,14.90
2022-10-26T23:58:13.669Z,14.80
